Estación de Peldehue

Ultimos registro cada 15 minutos 73
Estación Fecha / Hora Temperatura Humedad Lluvia Velocidad Dirección Radiación Presion
73 Peldehue 10-05-2026 18:00 20,1 33,1 0 0 225 3,1 932,4
72 Peldehue 10-05-2026 17:45 20,9 30,2 0 0 226 9,4 932,4
71 Peldehue 10-05-2026 17:30 22,9 29,4 0 0 226 16,9 932,3
70 Peldehue 10-05-2026 17:15 24,9 20,3 0 0 226 20,6 932,4
69 Peldehue 10-05-2026 17:00 25,9 19,2 0 0 226 24,4 932,4
68 Peldehue 10-05-2026 16:45 26,7 17,9 0 0 226 35,6 932,4
67 Peldehue 10-05-2026 16:30 27,2 16,2 0 0,5 225 30,6 932,7
66 Peldehue 10-05-2026 16:15 27,8 14,9 0 0,5 229 81,9 932,7
65 Peldehue 10-05-2026 16:00 28,2 13,8 0 0,5 230 356,9 932,9
64 Peldehue 10-05-2026 15:45 28,4 13,3 0 0,5 223 401,9 932,9
63 Peldehue 10-05-2026 15:30 28,3 13,9 0 0,5 225 444,4 932,8
62 Peldehue 10-05-2026 15:15 28,6 12,7 0 0,5 222 479,4 932,8
61 Peldehue 10-05-2026 15:00 28,6 12,8 0 0,5 225 518,1 932,8
60 Peldehue 10-05-2026 14:45 28,7 11,6 0 0,5 220 550,6 932,8
59 Peldehue 10-05-2026 14:30 28,5 15,7 0 0 220 579,4 932,7
58 Peldehue 10-05-2026 14:15 28,1 17 0 0,5 216 603,1 932,8
57 Peldehue 10-05-2026 14:00 27,8 17 0 0,5 215 624,4 932,9
56 Peldehue 10-05-2026 13:45 27,1 19,3 0 0,5 212 640,6 932,9
55 Peldehue 10-05-2026 13:30 26,7 18,7 0 0,5 215 655,6 932,9
54 Peldehue 10-05-2026 13:15 26,5 19,8 0 0,5 213 668,1 933
53 Peldehue 10-05-2026 13:00 26,2 20,7 0 0,5 219 675,6 933
52 Peldehue 10-05-2026 12:45 25,5 23,5 0 1 222 676,9 933,1
51 Peldehue 10-05-2026 12:30 25 23 0 1,5 230 674,4 933,1
50 Peldehue 10-05-2026 12:15 25,2 20,7 0 1 225 666,9 933,2
49 Peldehue 10-05-2026 12:00 25 19 0 1 220 661,9 933,3
48 Peldehue 10-05-2026 11:45 25,5 19 0 0,5 225 649,4 933,4
47 Peldehue 10-05-2026 11:30 25,3 14,9 0 0 222 635,6 933,4
46 Peldehue 10-05-2026 11:15 26 15 0 0 213 615,6 933,4
45 Peldehue 10-05-2026 11:00 25,3 14 0 0 212 590,6 933,4
44 Peldehue 10-05-2026 10:45 24,4 18,4 0 0 211 563,1 933,5
43 Peldehue 10-05-2026 10:30 23,5 19,3 0 0 211 531,9 933,5
42 Peldehue 10-05-2026 10:15 23 21,1 0 0 211 495,6 933,5
41 Peldehue 10-05-2026 10:00 21,5 20 0 0 211 458,1 933,6
40 Peldehue 10-05-2026 09:45 20,8 25,6 0 0 211 418,1 933,7
39 Peldehue 10-05-2026 09:30 20,7 23,6 0 0 211 375,6 933,6
38 Peldehue 10-05-2026 09:15 19,6 28,1 0 0 211 330,6 933,5
37 Peldehue 10-05-2026 09:00 16,4 32,3 0 0 211 284,4 933,5
36 Peldehue 10-05-2026 08:45 14,2 36,1 0 0 211 236,9 933,4
35 Peldehue 10-05-2026 08:30 12 36,1 0 0 211 188,1 933
34 Peldehue 10-05-2026 08:15 7,3 50 0 0 211 16,9 933,2
33 Peldehue 10-05-2026 08:00 7,8 43,2 0 0 211 13,1 933
32 Peldehue 10-05-2026 07:45 7,6 48,8 0 0 211 9,4 932,9
31 Peldehue 10-05-2026 07:30 8 44,1 0 0 211 5,6 932,9
30 Peldehue 10-05-2026 07:15 6,9 49,1 0 0 211 1,9 932,9
29 Peldehue 10-05-2026 07:00 5,8 56,1 0 0 211 0,6 932,9
28 Peldehue 10-05-2026 06:45 6,6 50,6 0 0 211 0,6 932,9
27 Peldehue 10-05-2026 06:30 5,5 56,9 0 0 211 0,6 932,9
26 Peldehue 10-05-2026 06:15 6 55,7 0 0 211 0,6 932,7
25 Peldehue 10-05-2026 06:00 5,9 57,5 0 0 211 0,6 932,7
24 Peldehue 10-05-2026 05:45 5,5 58,3 0 0 211 0,6 932,7
23 Peldehue 10-05-2026 05:30 4,9 62,7 0 0 211 0,6 932,7
22 Peldehue 10-05-2026 05:15 6 57,5 0 0 211 0,6 932,7
21 Peldehue 10-05-2026 05:00 5,4 60,8 0 0 211 0,6 932,8
20 Peldehue 10-05-2026 04:45 5,2 59,7 0 0 211 0,6 932,9
19 Peldehue 10-05-2026 04:30 5 65,2 0 0 211 0,6 933,1
18 Peldehue 10-05-2026 04:15 5,2 64,7 0 0 211 0,6 933
17 Peldehue 10-05-2026 04:00 6,6 58,6 0 0 211 0,6 933,3
16 Peldehue 10-05-2026 03:45 7 52,8 0 0 211 0,6 933,3
15 Peldehue 10-05-2026 03:30 5,9 60,5 0 0 211 0,6 933,4
14 Peldehue 10-05-2026 03:15 7,3 55,2 0 0 211 0,6 933,2
13 Peldehue 10-05-2026 03:00 7,5 54,2 0 0 211 0,6 933,2
12 Peldehue 10-05-2026 02:45 8,1 52,8 0 0 211 0,6 933,4
11 Peldehue 10-05-2026 02:30 7,5 53,8 0 0 211 0,6 933,4
10 Peldehue 10-05-2026 02:15 5,4 68,7 0 0 211 0,6 933,4
9 Peldehue 10-05-2026 02:00 5,9 66,2 0 0 211 0,6 933,4
8 Peldehue 10-05-2026 01:45 6,5 64,4 0 0 211 0,6 933,5
7 Peldehue 10-05-2026 01:30 6,7 64,2 0 0 211 0,6 933,5
6 Peldehue 10-05-2026 01:15 7 62,1 0 0 211 0,6 933,5
5 Peldehue 10-05-2026 01:00 7,2 63,7 0 0 211 0,6 933,6
4 Peldehue 10-05-2026 00:45 7,1 64,4 0 0 211 0,6 933,8
3 Peldehue 10-05-2026 00:30 7,3 62,9 0 0 211 0,6 933,8
2 Peldehue 10-05-2026 00:15 7 66,1 0 0 211 0,6 933,8
1 Peldehue 10-05-2026 00:00 7,7 61,9 0 0 211 0,6 934